sensor_id;sensor_type;location;lat;lon;timestamp;P1;durP1;ratioP1;P2;durP2;ratioP2
24745;SDS011;12845;52.042;6.838;2023-04-29T00:00:01;91.95;;;45.45;;
24745;SDS011;12845;52.042;6.838;2023-04-29T00:02:27;91.13;;;43.65;;
24745;SDS011;12845;52.042;6.838;2023-04-29T00:04:53;83.80;;;42.03;;
24745;SDS011;12845;52.042;6.838;2023-04-29T00:07:18;80.03;;;40.10;;
24745;SDS011;12845;52.042;6.838;2023-04-29T00:09:44;78.68;;;38.45;;
24745;SDS011;12845;52.042;6.838;2023-04-29T00:12:09;81.63;;;39.88;;
24745;SDS011;12845;52.042;6.838;2023-04-29T00:14:35;80.78;;;41.08;;
24745;SDS011;12845;52.042;6.838;2023-04-29T00:17:00;81.47;;;39.05;;
24745;SDS011;12845;52.042;6.838;2023-04-29T00:19:26;79.18;;;40.05;;
24745;SDS011;12845;52.042;6.838;2023-04-29T00:21:51;73.53;;;38.58;;
24745;SDS011;12845;52.042;6.838;2023-04-29T00:24:18;78.47;;;39.08;;
24745;SDS011;12845;52.042;6.838;2023-04-29T00:26:44;72.82;;;38.38;;
24745;SDS011;12845;52.042;6.838;2023-04-29T00:29:09;82.50;;;39.10;;
24745;SDS011;12845;52.042;6.838;2023-04-29T00:31:34;79.45;;;39.00;;
24745;SDS011;12845;52.042;6.838;2023-04-29T00:34:01;86.10;;;42.28;;
24745;SDS011;12845;52.042;6.838;2023-04-29T00:36:26;77.38;;;37.65;;
24745;SDS011;12845;52.042;6.838;2023-04-29T00:38:52;77.53;;;39.30;;
24745;SDS011;12845;52.042;6.838;2023-04-29T00:41:17;77.65;;;39.22;;
24745;SDS011;12845;52.042;6.838;2023-04-29T00:43:43;84.20;;;41.50;;
24745;SDS011;12845;52.042;6.838;2023-04-29T00:46:09;89.38;;;42.63;;
24745;SDS011;12845;52.042;6.838;2023-04-29T00:48:34;78.78;;;40.25;;
24745;SDS011;12845;52.042;6.838;2023-04-29T00:51:00;83.88;;;41.45;;
24745;SDS011;12845;52.042;6.838;2023-04-29T00:53:26;85.38;;;42.05;;
24745;SDS011;12845;52.042;6.838;2023-04-29T00:55:51;84.10;;;41.40;;
24745;SDS011;12845;52.042;6.838;2023-04-29T00:58:17;82.47;;;38.03;;
24745;SDS011;12845;52.042;6.838;2023-04-29T01:00:44;84.05;;;40.95;;
24745;SDS011;12845;52.042;6.838;2023-04-29T01:03:11;85.43;;;41.78;;
24745;SDS011;12845;52.042;6.838;2023-04-29T01:05:37;85.15;;;44.03;;
24745;SDS011;12845;52.042;6.838;2023-04-29T01:11:12;87.22;;;44.75;;
24745;SDS011;12845;52.042;6.838;2023-04-29T01:13:50;83.05;;;41.55;;
24745;SDS011;12845;52.042;6.838;2023-04-29T01:16:24;85.00;;;44.27;;
24745;SDS011;12845;52.042;6.838;2023-04-29T01:18:58;87.03;;;43.58;;
24745;SDS011;12845;52.042;6.838;2023-04-29T01:21:28;88.72;;;45.00;;
24745;SDS011;12845;52.042;6.838;2023-04-29T01:23:56;86.50;;;46.97;;
24745;SDS011;12845;52.042;6.838;2023-04-29T01:26:21;85.80;;;46.88;;
24745;SDS011;12845;52.042;6.838;2023-04-29T01:29:01;87.00;;;46.50;;
24745;SDS011;12845;52.042;6.838;2023-04-29T01:31:53;89.30;;;48.25;;
24745;SDS011;12845;52.042;6.838;2023-04-29T01:37:17;86.72;;;50.03;;
24745;SDS011;12845;52.042;6.838;2023-04-29T01:45:24;93.07;;;51.35;;
24745;SDS011;12845;52.042;6.838;2023-04-29T01:47:51;95.53;;;45.63;;
24745;SDS011;12845;52.042;6.838;2023-04-29T01:50:20;104.45;;;51.03;;
24745;SDS011;12845;52.042;6.838;2023-04-29T01:52:46;95.60;;;51.33;;
24745;SDS011;12845;52.042;6.838;2023-04-29T01:55:11;96.03;;;51.92;;
24745;SDS011;12845;52.042;6.838;2023-04-29T01:57:36;91.05;;;43.45;;
24745;SDS011;12845;52.042;6.838;2023-04-29T02:00:02;91.80;;;53.70;;
24745;SDS011;12845;52.042;6.838;2023-04-29T02:02:28;93.45;;;52.50;;
24745;SDS011;12845;52.042;6.838;2023-04-29T02:04:54;94.90;;;51.97;;
24745;SDS011;12845;52.042;6.838;2023-04-29T02:07:19;93.32;;;49.75;;
24745;SDS011;12845;52.042;6.838;2023-04-29T02:09:45;94.20;;;49.65;;
24745;SDS011;12845;52.042;6.838;2023-04-29T02:12:10;90.32;;;51.03;;
24745;SDS011;12845;52.042;6.838;2023-04-29T02:14:36;89.32;;;48.42;;
24745;SDS011;12845;52.042;6.838;2023-04-29T02:17:01;87.20;;;49.72;;
24745;SDS011;12845;52.042;6.838;2023-04-29T02:19:26;83.28;;;47.13;;
24745;SDS011;12845;52.042;6.838;2023-04-29T02:21:52;80.68;;;45.30;;
24745;SDS011;12845;52.042;6.838;2023-04-29T02:24:17;83.97;;;47.85;;
24745;SDS011;12845;52.042;6.838;2023-04-29T02:26:43;76.68;;;45.90;;
24745;SDS011;12845;52.042;6.838;2023-04-29T02:29:08;79.88;;;40.63;;
24745;SDS011;12845;52.042;6.838;2023-04-29T02:31:34;83.63;;;49.53;;
24745;SDS011;12845;52.042;6.838;2023-04-29T02:33:59;78.75;;;45.53;;
24745;SDS011;12845;52.042;6.838;2023-04-29T02:36:25;79.85;;;46.40;;
24745;SDS011;12845;52.042;6.838;2023-04-29T02:38:50;77.72;;;46.42;;
24745;SDS011;12845;52.042;6.838;2023-04-29T02:41:19;76.72;;;43.72;;
24745;SDS011;12845;52.042;6.838;2023-04-29T02:43:44;77.70;;;43.67;;
24745;SDS011;12845;52.042;6.838;2023-04-29T02:46:10;76.88;;;44.67;;
24745;SDS011;12845;52.042;6.838;2023-04-29T02:48:35;81.90;;;46.33;;
24745;SDS011;12845;52.042;6.838;2023-04-29T02:51:01;77.25;;;43.15;;
24745;SDS011;12845;52.042;6.838;2023-04-29T02:53:26;69.18;;;43.78;;
24745;SDS011;12845;52.042;6.838;2023-04-29T02:55:51;73.53;;;45.22;;
24745;SDS011;12845;52.042;6.838;2023-04-29T02:58:17;74.00;;;42.70;;
24745;SDS011;12845;52.042;6.838;2023-04-29T03:00:42;69.53;;;41.45;;
24745;SDS011;12845;52.042;6.838;2023-04-29T03:03:08;68.88;;;40.55;;
24745;SDS011;12845;52.042;6.838;2023-04-29T03:05:33;69.13;;;42.30;;
24745;SDS011;12845;52.042;6.838;2023-04-29T03:07:59;66.82;;;40.60;;
24745;SDS011;12845;52.042;6.838;2023-04-29T03:10:25;65.63;;;38.13;;
24745;SDS011;12845;52.042;6.838;2023-04-29T03:12:50;65.20;;;38.75;;
24745;SDS011;12845;52.042;6.838;2023-04-29T03:15:15;61.67;;;39.80;;
24745;SDS011;12845;52.042;6.838;2023-04-29T03:17:41;63.53;;;38.47;;
24745;SDS011;12845;52.042;6.838;2023-04-29T03:20:06;58.13;;;37.60;;
24745;SDS011;12845;52.042;6.838;2023-04-29T03:22:34;61.88;;;38.63;;
24745;SDS011;12845;52.042;6.838;2023-04-29T03:25:00;58.85;;;37.88;;
24745;SDS011;12845;52.042;6.838;2023-04-29T03:27:25;58.45;;;35.17;;
24745;SDS011;12845;52.042;6.838;2023-04-29T03:29:50;58.38;;;37.65;;
24745;SDS011;12845;52.042;6.838;2023-04-29T03:32:16;58.78;;;39.28;;
24745;SDS011;12845;52.042;6.838;2023-04-29T03:34:42;56.15;;;36.50;;
24745;SDS011;12845;52.042;6.838;2023-04-29T03:37:07;61.80;;;37.22;;
24745;SDS011;12845;52.042;6.838;2023-04-29T03:39:32;57.38;;;35.40;;
24745;SDS011;12845;52.042;6.838;2023-04-29T03:41:58;62.65;;;36.47;;
24745;SDS011;12845;52.042;6.838;2023-04-29T03:44:24;54.05;;;34.47;;
24745;SDS011;12845;52.042;6.838;2023-04-29T03:46:50;56.65;;;35.63;;
24745;SDS011;12845;52.042;6.838;2023-04-29T03:49:15;53.00;;;34.22;;
24745;SDS011;12845;52.042;6.838;2023-04-29T03:51:41;51.35;;;33.80;;
24745;SDS011;12845;52.042;6.838;2023-04-29T03:54:09;54.80;;;36.03;;
24745;SDS011;12845;52.042;6.838;2023-04-29T03:56:34;55.92;;;36.97;;
24745;SDS011;12845;52.042;6.838;2023-04-29T03:58:59;54.53;;;35.75;;
24745;SDS011;12845;52.042;6.838;2023-04-29T04:01:25;53.45;;;35.92;;
24745;SDS011;12845;52.042;6.838;2023-04-29T04:03:50;57.28;;;36.35;;
24745;SDS011;12845;52.042;6.838;2023-04-29T04:06:16;50.00;;;33.25;;
24745;SDS011;12845;52.042;6.838;2023-04-29T04:08:41;47.92;;;33.25;;
24745;SDS011;12845;52.042;6.838;2023-04-29T04:11:06;47.55;;;32.08;;
24745;SDS011;12845;52.042;6.838;2023-04-29T04:13:33;45.88;;;31.88;;
24745;SDS011;12845;52.042;6.838;2023-04-29T04:15:59;48.22;;;34.67;;
24745;SDS011;12845;52.042;6.838;2023-04-29T04:18:24;47.38;;;32.03;;
24745;SDS011;12845;52.042;6.838;2023-04-29T04:20:50;46.30;;;32.85;;
24745;SDS011;12845;52.042;6.838;2023-04-29T04:23:15;52.67;;;35.10;;
24745;SDS011;12845;52.042;6.838;2023-04-29T04:25:45;49.53;;;33.28;;
24745;SDS011;12845;52.042;6.838;2023-04-29T04:28:18;47.75;;;33.47;;
24745;SDS011;12845;52.042;6.838;2023-04-29T04:30:47;47.30;;;33.05;;
24745;SDS011;12845;52.042;6.838;2023-04-29T04:33:27;47.88;;;31.48;;
24745;SDS011;12845;52.042;6.838;2023-04-29T04:36:05;50.45;;;32.42;;
24745;SDS011;12845;52.042;6.838;2023-04-29T04:38:34;47.63;;;33.38;;
24745;SDS011;12845;52.042;6.838;2023-04-29T04:41:20;47.88;;;33.20;;
24745;SDS011;12845;52.042;6.838;2023-04-29T04:43:56;55.00;;;35.63;;
24745;SDS011;12845;52.042;6.838;2023-04-29T04:46:21;48.72;;;31.63;;
24745;SDS011;12845;52.042;6.838;2023-04-29T04:48:46;57.53;;;35.00;;
24745;SDS011;12845;52.042;6.838;2023-04-29T04:51:12;54.03;;;34.30;;
24745;SDS011;12845;52.042;6.838;2023-04-29T04:53:38;53.97;;;34.13;;
24745;SDS011;12845;52.042;6.838;2023-04-29T04:56:04;50.00;;;34.40;;
24745;SDS011;12845;52.042;6.838;2023-04-29T04:58:31;52.65;;;34.90;;
24745;SDS011;12845;52.042;6.838;2023-04-29T05:00:57;56.30;;;35.75;;
24745;SDS011;12845;52.042;6.838;2023-04-29T05:03:23;56.25;;;34.50;;
24745;SDS011;12845;52.042;6.838;2023-04-29T05:05:52;54.83;;;35.75;;
24745;SDS011;12845;52.042;6.838;2023-04-29T05:08:18;59.95;;;36.38;;
24745;SDS011;12845;52.042;6.838;2023-04-29T05:10:44;58.85;;;36.05;;
24745;SDS011;12845;52.042;6.838;2023-04-29T05:13:09;58.40;;;36.10;;
24745;SDS011;12845;52.042;6.838;2023-04-29T05:15:34;63.70;;;37.42;;
24745;SDS011;12845;52.042;6.838;2023-04-29T05:18:00;55.53;;;35.90;;
24745;SDS011;12845;52.042;6.838;2023-04-29T05:20:25;56.25;;;35.20;;
24745;SDS011;12845;52.042;6.838;2023-04-29T05:22:51;58.80;;;37.88;;
24745;SDS011;12845;52.042;6.838;2023-04-29T05:25:16;56.63;;;36.60;;
24745;SDS011;12845;52.042;6.838;2023-04-29T05:27:42;60.67;;;36.97;;
24745;SDS011;12845;52.042;6.838;2023-04-29T05:30:07;59.53;;;38.80;;
24745;SDS011;12845;52.042;6.838;2023-04-29T05:32:33;58.38;;;36.60;;
24745;SDS011;12845;52.042;6.838;2023-04-29T05:34:58;56.83;;;36.00;;
24745;SDS011;12845;52.042;6.838;2023-04-29T05:37:24;55.75;;;35.03;;
24745;SDS011;12845;52.042;6.838;2023-04-29T05:39:54;56.83;;;35.40;;
24745;SDS011;12845;52.042;6.838;2023-04-29T05:42:20;57.72;;;36.92;;
24745;SDS011;12845;52.042;6.838;2023-04-29T05:44:45;58.58;;;33.80;;
24745;SDS011;12845;52.042;6.838;2023-04-29T05:47:10;58.13;;;35.00;;
24745;SDS011;12845;52.042;6.838;2023-04-29T05:49:36;59.25;;;34.80;;
24745;SDS011;12845;52.042;6.838;2023-04-29T05:52:01;58.03;;;37.38;;
24745;SDS011;12845;52.042;6.838;2023-04-29T05:54:30;59.78;;;36.08;;
24745;SDS011;12845;52.042;6.838;2023-04-29T05:56:56;58.25;;;35.28;;
24745;SDS011;12845;52.042;6.838;2023-04-29T05:59:21;58.67;;;36.17;;
24745;SDS011;12845;52.042;6.838;2023-04-29T06:01:47;58.17;;;38.38;;
24745;SDS011;12845;52.042;6.838;2023-04-29T06:04:12;56.30;;;34.42;;
24745;SDS011;12845;52.042;6.838;2023-04-29T06:06:37;54.67;;;34.35;;
24745;SDS011;12845;52.042;6.838;2023-04-29T06:09:03;56.40;;;35.08;;
24745;SDS011;12845;52.042;6.838;2023-04-29T06:11:28;52.20;;;34.42;;
24745;SDS011;12845;52.042;6.838;2023-04-29T06:13:54;51.35;;;34.17;;
24745;SDS011;12845;52.042;6.838;2023-04-29T06:16:19;48.08;;;32.38;;
24745;SDS011;12845;52.042;6.838;2023-04-29T06:18:45;52.70;;;33.35;;
24745;SDS011;12845;52.042;6.838;2023-04-29T06:21:10;53.10;;;32.65;;
24745;SDS011;12845;52.042;6.838;2023-04-29T06:23:36;50.50;;;31.23;;
24745;SDS011;12845;52.042;6.838;2023-04-29T06:26:01;49.70;;;33.30;;
24745;SDS011;12845;52.042;6.838;2023-04-29T06:28:26;50.13;;;32.28;;
24745;SDS011;12845;52.042;6.838;2023-04-29T06:30:53;46.65;;;32.58;;
24745;SDS011;12845;52.042;6.838;2023-04-29T06:33:19;45.53;;;31.40;;
24745;SDS011;12845;52.042;6.838;2023-04-29T06:35:44;46.22;;;31.33;;
24745;SDS011;12845;52.042;6.838;2023-04-29T06:38:09;51.35;;;31.15;;
24745;SDS011;12845;52.042;6.838;2023-04-29T06:40:35;48.03;;;30.48;;
24745;SDS011;12845;52.042;6.838;2023-04-29T06:43:00;45.95;;;29.20;;
24745;SDS011;12845;52.042;6.838;2023-04-29T06:45:26;48.20;;;29.67;;
24745;SDS011;12845;52.042;6.838;2023-04-29T06:47:52;45.53;;;31.27;;
24745;SDS011;12845;52.042;6.838;2023-04-29T06:50:17;45.30;;;29.80;;
24745;SDS011;12845;52.042;6.838;2023-04-29T06:52:43;43.85;;;30.08;;
24745;SDS011;12845;52.042;6.838;2023-04-29T06:55:08;43.95;;;30.05;;
24745;SDS011;12845;52.042;6.838;2023-04-29T06:57:35;42.88;;;28.23;;
24745;SDS011;12845;52.042;6.838;2023-04-29T07:00:00;41.03;;;28.15;;
24745;SDS011;12845;52.042;6.838;2023-04-29T07:02:26;44.05;;;30.27;;
24745;SDS011;12845;52.042;6.838;2023-04-29T07:04:52;43.65;;;29.95;;
24745;SDS011;12845;52.042;6.838;2023-04-29T07:07:17;44.58;;;29.52;;
24745;SDS011;12845;52.042;6.838;2023-04-29T07:09:43;44.38;;;29.38;;
24745;SDS011;12845;52.042;6.838;2023-04-29T07:12:08;47.38;;;30.42;;
24745;SDS011;12845;52.042;6.838;2023-04-29T07:14:33;42.45;;;27.65;;
24745;SDS011;12845;52.042;6.838;2023-04-29T07:17:01;42.38;;;29.13;;
24745;SDS011;12845;52.042;6.838;2023-04-29T07:19:26;43.30;;;28.52;;
24745;SDS011;12845;52.042;6.838;2023-04-29T07:21:52;41.38;;;28.58;;
24745;SDS011;12845;52.042;6.838;2023-04-29T07:24:17;41.92;;;28.13;;
24745;SDS011;12845;52.042;6.838;2023-04-29T07:26:43;42.88;;;28.27;;
24745;SDS011;12845;52.042;6.838;2023-04-29T07:29:11;38.55;;;27.25;;
24745;SDS011;12845;52.042;6.838;2023-04-29T07:31:36;42.10;;;28.45;;
24745;SDS011;12845;52.042;6.838;2023-04-29T07:34:02;41.55;;;26.00;;
24745;SDS011;12845;52.042;6.838;2023-04-29T07:36:27;39.90;;;26.80;;
24745;SDS011;12845;52.042;6.838;2023-04-29T07:38:53;36.80;;;24.98;;
24745;SDS011;12845;52.042;6.838;2023-04-29T07:41:19;39.47;;;26.42;;
24745;SDS011;12845;52.042;6.838;2023-04-29T07:43:44;40.90;;;25.83;;
24745;SDS011;12845;52.042;6.838;2023-04-29T07:46:10;36.88;;;24.35;;
24745;SDS011;12845;52.042;6.838;2023-04-29T07:48:36;36.63;;;24.80;;
24745;SDS011;12845;52.042;6.838;2023-04-29T07:51:04;36.38;;;25.35;;
24745;SDS011;12845;52.042;6.838;2023-04-29T07:53:30;33.42;;;22.92;;
24745;SDS011;12845;52.042;6.838;2023-04-29T07:55:56;37.80;;;25.15;;
24745;SDS011;12845;52.042;6.838;2023-04-29T07:58:21;35.28;;;23.48;;
24745;SDS011;12845;52.042;6.838;2023-04-29T08:00:47;35.05;;;23.75;;
24745;SDS011;12845;52.042;6.838;2023-04-29T08:03:12;34.75;;;25.05;;
24745;SDS011;12845;52.042;6.838;2023-04-29T08:05:38;33.88;;;23.77;;
24745;SDS011;12845;52.042;6.838;2023-04-29T08:08:03;34.92;;;24.30;;
24745;SDS011;12845;52.042;6.838;2023-04-29T08:10:29;35.30;;;22.38;;
24745;SDS011;12845;52.042;6.838;2023-04-29T08:12:54;34.88;;;23.90;;
24745;SDS011;12845;52.042;6.838;2023-04-29T08:15:20;36.97;;;23.15;;
24745;SDS011;12845;52.042;6.838;2023-04-29T08:17:45;43.25;;;27.23;;
24745;SDS011;12845;52.042;6.838;2023-04-29T08:20:11;34.30;;;23.98;;
24745;SDS011;12845;52.042;6.838;2023-04-29T08:22:37;31.92;;;21.90;;
24745;SDS011;12845;52.042;6.838;2023-04-29T08:25:02;33.35;;;21.52;;
24745;SDS011;12845;52.042;6.838;2023-04-29T08:27:29;29.30;;;20.38;;
24745;SDS011;12845;52.042;6.838;2023-04-29T08:29:55;29.52;;;20.15;;
24745;SDS011;12845;52.042;6.838;2023-04-29T08:32:21;31.75;;;21.58;;
24745;SDS011;12845;52.042;6.838;2023-04-29T08:34:46;33.53;;;23.33;;
24745;SDS011;12845;52.042;6.838;2023-04-29T08:37:13;33.33;;;23.08;;
24745;SDS011;12845;52.042;6.838;2023-04-29T08:39:39;28.63;;;20.83;;
24745;SDS011;12845;52.042;6.838;2023-04-29T08:42:09;33.60;;;22.55;;
24745;SDS011;12845;52.042;6.838;2023-04-29T08:44:35;30.10;;;20.80;;
24745;SDS011;12845;52.042;6.838;2023-04-29T08:47:01;30.58;;;20.88;;
24745;SDS011;12845;52.042;6.838;2023-04-29T08:49:29;30.58;;;20.23;;
24745;SDS011;12845;52.042;6.838;2023-04-29T08:51:57;32.15;;;21.48;;
24745;SDS011;12845;52.042;6.838;2023-04-29T08:54:23;27.30;;;19.90;;
24745;SDS011;12845;52.042;6.838;2023-04-29T08:56:48;30.88;;;21.45;;
24745;SDS011;12845;52.042;6.838;2023-04-29T08:59:16;27.63;;;19.63;;
24745;SDS011;12845;52.042;6.838;2023-04-29T09:01:42;27.75;;;20.42;;
24745;SDS011;12845;52.042;6.838;2023-04-29T09:04:11;29.38;;;19.58;;
24745;SDS011;12845;52.042;6.838;2023-04-29T09:06:44;26.42;;;18.23;;
24745;SDS011;12845;52.042;6.838;2023-04-29T09:09:11;28.92;;;19.80;;
24745;SDS011;12845;52.042;6.838;2023-04-29T09:11:38;29.92;;;20.75;;
24745;SDS011;12845;52.042;6.838;2023-04-29T09:14:04;27.15;;;19.90;;
24745;SDS011;12845;52.042;6.838;2023-04-29T09:16:29;28.63;;;20.13;;
24745;SDS011;12845;52.042;6.838;2023-04-29T09:18:55;29.65;;;21.67;;
24745;SDS011;12845;52.042;6.838;2023-04-29T09:21:21;28.63;;;19.27;;
24745;SDS011;12845;52.042;6.838;2023-04-29T09:23:49;25.40;;;18.17;;
24745;SDS011;12845;52.042;6.838;2023-04-29T09:26:22;24.50;;;18.38;;
24745;SDS011;12845;52.042;6.838;2023-04-29T09:29:07;26.25;;;17.02;;
24745;SDS011;12845;52.042;6.838;2023-04-29T09:31:37;21.98;;;17.25;;
24745;SDS011;12845;52.042;6.838;2023-04-29T09:34:03;23.17;;;17.80;;
24745;SDS011;12845;52.042;6.838;2023-04-29T09:39:09;23.63;;;18.05;;
24745;SDS011;12845;52.042;6.838;2023-04-29T09:44:16;23.98;;;16.23;;
24745;SDS011;12845;52.042;6.838;2023-04-29T09:46:41;23.77;;;16.08;;
24745;SDS011;12845;52.042;6.838;2023-04-29T09:52:07;24.00;;;17.05;;
24745;SDS011;12845;52.042;6.838;2023-04-29T09:54:37;21.83;;;15.70;;
24745;SDS011;12845;52.042;6.838;2023-04-29T09:57:04;22.02;;;15.40;;
24745;SDS011;12845;52.042;6.838;2023-04-29T09:59:30;20.73;;;14.60;;
24745;SDS011;12845;52.042;6.838;2023-04-29T10:01:57;18.08;;;13.82;;
24745;SDS011;12845;52.042;6.838;2023-04-29T10:04:23;17.55;;;13.95;;
24745;SDS011;12845;52.042;6.838;2023-04-29T10:06:51;20.83;;;14.27;;
24745;SDS011;12845;52.042;6.838;2023-04-29T10:09:18;21.00;;;14.45;;
24745;SDS011;12845;52.042;6.838;2023-04-29T10:11:44;19.40;;;14.35;;
24745;SDS011;12845;52.042;6.838;2023-04-29T10:14:12;18.30;;;14.25;;
24745;SDS011;12845;52.042;6.838;2023-04-29T10:16:46;19.58;;;13.75;;
24745;SDS011;12845;52.042;6.838;2023-04-29T10:22:18;20.83;;;14.00;;
24745;SDS011;12845;52.042;6.838;2023-04-29T10:24:49;18.20;;;13.52;;
24745;SDS011;12845;52.042;6.838;2023-04-29T10:27:16;20.58;;;13.60;;
24745;SDS011;12845;52.042;6.838;2023-04-29T10:29:45;19.65;;;14.23;;
24745;SDS011;12845;52.042;6.838;2023-04-29T10:32:12;18.35;;;13.43;;
24745;SDS011;12845;52.042;6.838;2023-04-29T10:34:38;17.70;;;13.52;;
24745;SDS011;12845;52.042;6.838;2023-04-29T10:37:09;20.48;;;13.82;;
24745;SDS011;12845;52.042;6.838;2023-04-29T10:39:41;21.05;;;14.60;;
24745;SDS011;12845;52.042;6.838;2023-04-29T10:42:15;20.52;;;13.93;;
24745;SDS011;12845;52.042;6.838;2023-04-29T10:50:39;18.27;;;13.02;;
24745;SDS011;12845;52.042;6.838;2023-04-29T10:53:24;18.33;;;13.32;;
24745;SDS011;12845;52.042;6.838;2023-04-29T10:55:53;17.48;;;13.05;;
24745;SDS011;12845;52.042;6.838;2023-04-29T10:58:33;21.13;;;13.07;;
24745;SDS011;12845;52.042;6.838;2023-04-29T11:01:00;18.10;;;12.93;;
24745;SDS011;12845;52.042;6.838;2023-04-29T11:06:25;19.92;;;13.55;;
24745;SDS011;12845;52.042;6.838;2023-04-29T11:09:10;16.27;;;13.63;;
24745;SDS011;12845;52.042;6.838;2023-04-29T11:14:22;15.75;;;11.13;;
24745;SDS011;12845;52.042;6.838;2023-04-29T11:16:53;16.13;;;11.65;;
24745;SDS011;12845;52.042;6.838;2023-04-29T11:19:22;17.38;;;12.32;;
24745;SDS011;12845;52.042;6.838;2023-04-29T11:24:34;15.13;;;12.20;;
24745;SDS011;12845;52.042;6.838;2023-04-29T11:27:01;17.83;;;12.68;;
24745;SDS011;12845;52.042;6.838;2023-04-29T11:29:29;16.63;;;11.63;;
24745;SDS011;12845;52.042;6.838;2023-04-29T11:32:00;16.45;;;12.00;;
24745;SDS011;12845;52.042;6.838;2023-04-29T11:34:26;15.98;;;12.45;;
24745;SDS011;12845;52.042;6.838;2023-04-29T11:36:51;15.68;;;11.77;;
24745;SDS011;12845;52.042;6.838;2023-04-29T11:39:17;14.55;;;10.38;;
24745;SDS011;12845;52.042;6.838;2023-04-29T11:41:42;13.38;;;10.55;;
24745;SDS011;12845;52.042;6.838;2023-04-29T11:44:08;12.85;;;9.80;;
24745;SDS011;12845;52.042;6.838;2023-04-29T11:46:35;14.45;;;10.43;;
24745;SDS011;12845;52.042;6.838;2023-04-29T11:49:01;13.85;;;10.43;;
24745;SDS011;12845;52.042;6.838;2023-04-29T11:51:26;15.18;;;10.95;;
24745;SDS011;12845;52.042;6.838;2023-04-29T11:53:52;14.63;;;10.82;;
24745;SDS011;12845;52.042;6.838;2023-04-29T11:56:21;13.63;;;10.73;;
24745;SDS011;12845;52.042;6.838;2023-04-29T11:58:53;14.98;;;10.73;;
24745;SDS011;12845;52.042;6.838;2023-04-29T12:01:20;14.35;;;11.00;;
24745;SDS011;12845;52.042;6.838;2023-04-29T12:03:47;14.15;;;9.55;;
24745;SDS011;12845;52.042;6.838;2023-04-29T12:06:13;15.15;;;10.73;;
24745;SDS011;12845;52.042;6.838;2023-04-29T12:08:39;15.68;;;9.70;;
24745;SDS011;12845;52.042;6.838;2023-04-29T12:11:05;13.10;;;9.35;;
24745;SDS011;12845;52.042;6.838;2023-04-29T12:13:32;11.85;;;9.45;;
24745;SDS011;12845;52.042;6.838;2023-04-29T12:16:01;13.15;;;9.75;;
24745;SDS011;12845;52.042;6.838;2023-04-29T12:18:27;13.30;;;9.10;;
24745;SDS011;12845;52.042;6.838;2023-04-29T12:20:54;11.18;;;8.43;;
24745;SDS011;12845;52.042;6.838;2023-04-29T12:23:21;11.07;;;7.70;;
24745;SDS011;12845;52.042;6.838;2023-04-29T12:25:51;10.52;;;7.15;;
24745;SDS011;12845;52.042;6.838;2023-04-29T12:28:20;13.45;;;8.80;;
24745;SDS011;12845;52.042;6.838;2023-04-29T12:30:46;11.75;;;8.48;;
24745;SDS011;12845;52.042;6.838;2023-04-29T12:33:19;12.50;;;8.93;;
24745;SDS011;12845;52.042;6.838;2023-04-29T12:35:53;14.40;;;9.23;;
24745;SDS011;12845;52.042;6.838;2023-04-29T12:38:21;12.13;;;8.50;;
24745;SDS011;12845;52.042;6.838;2023-04-29T12:40:47;12.43;;;8.63;;
24745;SDS011;12845;52.042;6.838;2023-04-29T12:43:13;11.38;;;8.32;;
24745;SDS011;12845;52.042;6.838;2023-04-29T12:45:38;11.98;;;7.80;;
24745;SDS011;12845;52.042;6.838;2023-04-29T12:48:04;12.52;;;7.97;;
24745;SDS011;12845;52.042;6.838;2023-04-29T12:53:00;10.60;;;7.10;;
24745;SDS011;12845;52.042;6.838;2023-04-29T12:55:28;9.65;;;6.93;;
24745;SDS011;12845;52.042;6.838;2023-04-29T12:57:53;9.95;;;7.03;;
24745;SDS011;12845;52.042;6.838;2023-04-29T13:00:19;10.55;;;7.80;;
24745;SDS011;12845;52.042;6.838;2023-04-29T13:02:45;10.65;;;7.47;;
24745;SDS011;12845;52.042;6.838;2023-04-29T13:05:11;10.30;;;7.22;;
24745;SDS011;12845;52.042;6.838;2023-04-29T13:07:36;8.65;;;6.40;;
24745;SDS011;12845;52.042;6.838;2023-04-29T13:10:02;9.70;;;6.63;;
24745;SDS011;12845;52.042;6.838;2023-04-29T13:12:30;9.73;;;6.38;;
24745;SDS011;12845;52.042;6.838;2023-04-29T13:14:56;9.48;;;6.82;;
24745;SDS011;12845;52.042;6.838;2023-04-29T13:17:21;9.13;;;5.40;;
24745;SDS011;12845;52.042;6.838;2023-04-29T13:19:46;9.57;;;5.68;;
24745;SDS011;12845;52.042;6.838;2023-04-29T13:22:12;8.80;;;5.93;;
24745;SDS011;12845;52.042;6.838;2023-04-29T13:24:37;7.95;;;5.40;;
24745;SDS011;12845;52.042;6.838;2023-04-29T13:27:03;8.60;;;5.90;;
24745;SDS011;12845;52.042;6.838;2023-04-29T13:29:28;8.93;;;5.70;;
24745;SDS011;12845;52.042;6.838;2023-04-29T13:31:54;9.25;;;5.80;;
24745;SDS011;12845;52.042;6.838;2023-04-29T13:34:20;8.68;;;5.40;;
24745;SDS011;12845;52.042;6.838;2023-04-29T13:36:45;8.88;;;5.93;;
24745;SDS011;12845;52.042;6.838;2023-04-29T13:39:10;7.22;;;5.32;;
24745;SDS011;12845;52.042;6.838;2023-04-29T13:41:36;7.40;;;4.50;;
24745;SDS011;12845;52.042;6.838;2023-04-29T13:44:01;9.50;;;4.78;;
24745;SDS011;12845;52.042;6.838;2023-04-29T13:46:27;6.00;;;4.50;;
24745;SDS011;12845;52.042;6.838;2023-04-29T13:48:52;6.53;;;4.60;;
24745;SDS011;12845;52.042;6.838;2023-04-29T13:51:18;7.82;;;3.92;;
24745;SDS011;12845;52.042;6.838;2023-04-29T13:53:43;5.30;;;3.70;;
24745;SDS011;12845;52.042;6.838;2023-04-29T13:56:09;6.65;;;4.22;;
24745;SDS011;12845;52.042;6.838;2023-04-29T13:58:34;7.55;;;5.60;;
24745;SDS011;12845;52.042;6.838;2023-04-29T14:01:00;7.28;;;5.43;;
24745;SDS011;12845;52.042;6.838;2023-04-29T14:03:25;6.70;;;4.18;;
24745;SDS011;12845;52.042;6.838;2023-04-29T14:05:51;7.63;;;5.05;;
24745;SDS011;12845;52.042;6.838;2023-04-29T14:08:16;7.68;;;5.32;;
24745;SDS011;12845;52.042;6.838;2023-04-29T14:10:42;7.28;;;5.20;;
24745;SDS011;12845;52.042;6.838;2023-04-29T14:13:07;8.38;;;5.57;;
24745;SDS011;12845;52.042;6.838;2023-04-29T14:15:32;5.43;;;4.35;;
24745;SDS011;12845;52.042;6.838;2023-04-29T14:17:58;6.47;;;4.90;;
24745;SDS011;12845;52.042;6.838;2023-04-29T14:20:23;6.55;;;4.68;;
24745;SDS011;12845;52.042;6.838;2023-04-29T14:22:48;6.40;;;4.97;;
24745;SDS011;12845;52.042;6.838;2023-04-29T14:25:14;5.93;;;4.43;;
24745;SDS011;12845;52.042;6.838;2023-04-29T14:27:39;5.38;;;4.22;;
24745;SDS011;12845;52.042;6.838;2023-04-29T14:30:05;7.63;;;5.53;;
24745;SDS011;12845;52.042;6.838;2023-04-29T14:32:31;7.93;;;5.70;;
24745;SDS011;12845;52.042;6.838;2023-04-29T14:34:56;6.85;;;4.60;;
24745;SDS011;12845;52.042;6.838;2023-04-29T14:37:22;6.47;;;4.18;;
24745;SDS011;12845;52.042;6.838;2023-04-29T14:39:47;5.00;;;3.70;;
24745;SDS011;12845;52.042;6.838;2023-04-29T14:42:13;8.00;;;4.80;;
24745;SDS011;12845;52.042;6.838;2023-04-29T14:44:39;6.95;;;4.60;;
24745;SDS011;12845;52.042;6.838;2023-04-29T14:47:04;7.60;;;5.13;;
24745;SDS011;12845;52.042;6.838;2023-04-29T14:49:30;7.07;;;4.30;;
24745;SDS011;12845;52.042;6.838;2023-04-29T14:51:55;8.88;;;4.68;;
24745;SDS011;12845;52.042;6.838;2023-04-29T14:54:20;7.30;;;5.32;;
24745;SDS011;12845;52.042;6.838;2023-04-29T14:56:46;10.02;;;5.78;;
24745;SDS011;12845;52.042;6.838;2023-04-29T14:59:11;6.07;;;5.03;;
24745;SDS011;12845;52.042;6.838;2023-04-29T15:01:37;7.90;;;5.10;;